Terminal Aerodrome Forecast
Issued by NWS

Current Version | Previous Version | Graphics & Text | Print | Product List | Glossary Off
Versions: 1 2 3 4 5 6 7 8 9 10 11 12 13

000
FTUS41 KPBZ 292000 AAA
TAFMGW
TAF AMD
KMGW 292000Z 2920/3018 15005KT P6SM -SHRA BKN060
      TEMPO 2920/2922 2SM TSRA BKN015CB OVC050
     FM300000 00000KT P6SM BKN050
     FM300900 00000KT 3SM BR BKN100
     FM301300 25003KT P6SM SCT050=

USA.gov is the U.S. government's official web portal to all federal, state and local government web resources and services.